createdAt,value
2023-08-05T00:02:26.122Z,100.00
2023-08-05T00:04:55.958Z,100.00
2023-08-05T00:07:25.830Z,100.00
2023-08-05T00:09:55.639Z,100.00
2023-08-05T00:12:25.401Z,100.00
2023-08-05T00:14:57.761Z,100.00
2023-08-05T00:17:28.026Z,100.00
2023-08-05T00:19:57.833Z,100.00
2023-08-05T00:22:27.640Z,100.00
2023-08-05T00:24:57.412Z,100.00
2023-08-05T00:27:27.278Z,100.00
2023-08-05T00:29:59.760Z,100.00
2023-08-05T00:32:31.427Z,100.00
2023-08-05T00:35:01.217Z,100.00
2023-08-05T00:37:31.013Z,100.00
2023-08-05T00:40:00.779Z,100.00
2023-08-05T00:42:32.036Z,100.00
2023-08-05T00:45:05.311Z,100.00
2023-08-05T00:47:35.264Z,100.00
2023-08-05T00:50:05.261Z,100.00
2023-08-05T00:52:35.112Z,100.00
2023-08-05T00:55:05.116Z,100.00
2023-08-05T00:57:34.903Z,100.00
2023-08-05T01:00:08.519Z,100.00
2023-08-05T01:02:39.044Z,100.00
2023-08-05T01:05:09.022Z,100.00
2023-08-05T01:07:40.930Z,100.00
2023-08-05T01:10:11.420Z,100.00
2023-08-05T01:12:41.196Z,100.00
2023-08-05T01:15:14.233Z,100.00
2023-08-05T01:17:44.298Z,100.00
2023-08-05T01:20:16.021Z,100.00
2023-08-05T01:22:49.033Z,100.00
2023-08-05T01:25:28.752Z,100.00
2023-08-05T01:27:59.839Z,100.00
2023-08-05T01:30:30.592Z,100.00
2023-08-05T01:33:03.549Z,100.00
2023-08-05T01:35:33.631Z,100.00
2023-08-05T01:38:03.511Z,100.00
2023-08-05T01:40:36.340Z,100.00
2023-08-05T01:43:08.832Z,100.00
2023-08-05T01:45:38.843Z,100.00
2023-08-05T01:48:08.889Z,100.00
2023-08-05T01:50:39.428Z,100.00
2023-08-05T01:53:09.236Z,100.00
2023-08-05T01:55:41.739Z,100.00
2023-08-05T01:58:11.788Z,100.00
2023-08-05T02:00:41.628Z,100.00
2023-08-05T02:03:11.587Z,100.00
2023-08-05T02:05:41.416Z,100.00
2023-08-05T02:08:12.511Z,100.00
2023-08-05T02:10:45.206Z,100.00
2023-08-05T02:13:15.016Z,100.00
2023-08-05T02:15:44.780Z,100.00
2023-08-05T02:18:14.580Z,100.00
2023-08-05T02:20:44.372Z,100.00
2023-08-05T02:23:14.178Z,100.00
2023-08-05T02:25:46.541Z,100.00
2023-08-05T02:28:16.657Z,100.00
2023-08-05T02:30:46.455Z,100.00
2023-08-05T02:33:16.253Z,100.00
2023-08-05T02:35:47.362Z,100.00
2023-08-05T02:38:17.295Z,100.00
2023-08-05T02:40:49.670Z,100.00
2023-08-05T02:43:19.517Z,100.00
2023-08-05T02:45:56.313Z,100.00
2023-08-05T02:48:27.016Z,100.00
2023-08-05T02:50:57.994Z,100.00
2023-08-05T02:53:29.158Z,100.00
2023-08-05T02:56:01.677Z,100.00
2023-08-05T02:58:32.031Z,100.00
2023-08-05T03:01:09.945Z,100.00
2023-08-05T03:03:40.049Z,100.00
2023-08-05T03:06:09.903Z,100.00
2023-08-05T03:08:39.866Z,100.00
2023-08-05T03:11:12.316Z,100.00
2023-08-05T03:13:42.207Z,100.00
2023-08-05T03:16:13.556Z,100.00
2023-08-05T03:18:51.281Z,100.00
2023-08-05T03:21:21.089Z,100.00
2023-08-05T03:23:50.947Z,100.00
2023-08-05T03:26:23.341Z,100.00
2023-08-05T03:28:53.140Z,100.00
2023-08-05T03:31:23.219Z,100.00
2023-08-05T03:33:54.017Z,100.00
2023-08-05T03:36:23.824Z,100.00
2023-08-05T03:38:53.639Z,100.00
2023-08-05T03:41:27.532Z,100.00
2023-08-05T03:43:57.582Z,100.00
2023-08-05T03:46:27.497Z,100.00
2023-08-05T03:48:57.398Z,100.00
2023-08-05T03:51:28.333Z,100.00
2023-08-05T03:53:58.831Z,100.00
2023-08-05T03:56:31.626Z,100.00
2023-08-05T03:59:03.046Z,100.00
2023-08-05T04:01:34.321Z,100.00
2023-08-05T04:04:04.527Z,100.00
2023-08-05T04:06:34.839Z,100.00
2023-08-05T04:09:07.335Z,100.00
2023-08-05T04:11:39.811Z,100.00
2023-08-05T04:14:11.987Z,100.00
2023-08-05T04:16:42.318Z,100.00
2023-08-05T04:19:12.160Z,100.00
2023-08-05T04:21:48.060Z,100.00
2023-08-05T04:24:20.770Z,100.00
2023-08-05T04:26:53.537Z,100.00
2023-08-05T04:29:24.258Z,100.00
2023-08-05T04:31:54.836Z,100.00
2023-08-05T04:34:24.875Z,100.00
2023-08-05T04:36:55.637Z,100.00
2023-08-05T04:39:25.626Z,100.00
2023-08-05T04:41:58.559Z,100.00
2023-08-05T04:44:28.436Z,100.00
2023-08-05T04:46:58.216Z,100.00
2023-08-05T04:49:28.023Z,100.00
2023-08-05T04:51:57.856Z,100.00
2023-08-05T04:54:27.629Z,100.00
2023-08-05T04:57:00.028Z,100.00
2023-08-05T04:59:29.790Z,100.00
2023-08-05T05:01:59.723Z,100.00
2023-08-05T05:04:29.554Z,100.00
2023-08-05T05:06:59.373Z,100.00
2023-08-05T05:09:29.181Z,100.00
2023-08-05T05:12:01.898Z,100.00
2023-08-05T05:14:35.468Z,100.00
2023-08-05T05:17:05.245Z,100.00
2023-08-05T05:19:35.047Z,100.00
2023-08-05T05:22:04.794Z,100.00
2023-08-05T05:24:34.654Z,100.00
2023-08-05T05:27:07.746Z,100.00
2023-08-05T05:29:37.537Z,100.00
2023-08-05T05:32:08.198Z,100.00
2023-08-05T05:34:38.141Z,100.00
2023-08-05T05:37:08.370Z,100.00
2023-08-05T05:39:38.145Z,100.00
2023-08-05T05:42:10.794Z,100.00
2023-08-05T05:44:40.761Z,100.00
2023-08-05T05:47:11.843Z,100.00
2023-08-05T05:49:41.703Z,100.00
2023-08-05T05:52:14.497Z,100.00
2023-08-05T05:54:44.298Z,100.00
2023-08-05T05:57:16.689Z,100.00
2023-08-05T05:59:46.761Z,100.00
2023-08-05T06:02:16.603Z,100.00
2023-08-05T06:04:48.910Z,100.00
2023-08-05T06:07:19.173Z,100.00
2023-08-05T06:09:49.011Z,100.00
2023-08-05T06:12:23.969Z,100.00
2023-08-05T06:14:53.849Z,100.00
2023-08-05T06:17:23.647Z,100.00
2023-08-05T06:19:53.496Z,100.00
2023-08-05T06:22:23.262Z,100.00
2023-08-05T06:24:53.188Z,100.00
2023-08-05T06:27:25.618Z,99.61
2023-08-05T06:29:55.702Z,99.18
2023-08-05T06:32:25.812Z,99.28
2023-08-05T06:34:55.900Z,98.76
2023-08-05T06:37:25.875Z,97.99
2023-08-05T06:39:55.715Z,97.86
2023-08-05T06:42:28.112Z,97.68
2023-08-05T06:44:58.211Z,97.45
2023-08-05T06:47:32.606Z,97.14
2023-08-05T06:50:03.393Z,96.84
2023-08-05T06:52:33.181Z,96.25
2023-08-05T06:55:05.292Z,96.08
2023-08-05T06:57:37.827Z,95.66
2023-08-05T07:00:09.558Z,95.74
2023-08-05T07:02:39.405Z,95.55
2023-08-05T07:05:09.432Z,95.26
2023-08-05T07:07:39.192Z,95.42
2023-08-05T07:10:12.977Z,95.64
2023-08-05T07:12:45.343Z,95.32
2023-08-05T07:15:15.113Z,95.03
2023-08-05T07:17:45.066Z,94.46
2023-08-05T07:20:15.347Z,93.58
2023-08-05T07:22:45.092Z,92.22
2023-08-05T07:25:14.918Z,91.43
2023-08-05T07:27:47.270Z,90.07
2023-08-05T07:30:17.067Z,88.87
2023-08-05T07:32:46.855Z,87.25
2023-08-05T07:35:16.985Z,85.94
2023-08-05T07:37:48.389Z,82.90
2023-08-05T07:40:18.227Z,80.41
2023-08-05T07:42:51.141Z,77.00
2023-08-05T07:45:22.695Z,75.13
2023-08-05T07:47:53.297Z,73.49
2023-08-05T07:50:25.753Z,72.55
2023-08-05T07:52:55.741Z,71.24
2023-08-05T07:55:31.088Z,70.41
2023-08-05T07:58:05.781Z,68.72
2023-08-05T08:00:35.679Z,67.64
2023-08-05T08:03:05.844Z,66.70
2023-08-05T08:05:35.620Z,63.11
2023-08-05T08:08:05.522Z,59.59
2023-08-05T08:10:35.288Z,55.70
2023-08-05T08:13:07.672Z,52.77
2023-08-05T08:15:37.499Z,52.60
2023-08-05T08:18:07.397Z,52.07
2023-08-05T08:20:37.197Z,52.77
2023-08-05T08:23:07.211Z,53.85
2023-08-05T08:25:39.674Z,54.26
2023-08-05T08:28:12.044Z,54.80
2023-08-05T08:30:41.861Z,54.33
2023-08-05T08:33:11.740Z,55.47
2023-08-05T08:35:41.598Z,55.70
2023-08-05T08:38:11.390Z,56.69
2023-08-05T08:40:41.166Z,57.23
2023-08-05T08:43:13.869Z,57.38
2023-08-05T08:45:44.067Z,56.56
2023-08-05T08:48:14.469Z,54.83
2023-08-05T08:50:44.669Z,52.11
2023-08-05T08:53:14.843Z,51.36
2023-08-05T08:55:45.415Z,52.05
2023-08-05T08:58:17.858Z,51.40
2023-08-05T09:00:47.796Z,49.73
2023-08-05T09:03:17.869Z,47.28
2023-08-05T09:05:49.592Z,46.52
2023-08-05T09:08:19.534Z,45.79
2023-08-05T09:10:49.346Z,45.36
2023-08-05T09:13:21.888Z,45.44
2023-08-05T09:15:51.712Z,45.72
2023-08-05T09:18:21.523Z,43.33
2023-08-05T09:20:53.353Z,41.61
2023-08-05T09:23:23.137Z,39.75
2023-08-05T09:25:53.263Z,36.67
2023-08-05T09:28:35.457Z,33.76
2023-08-05T09:31:18.974Z,32.17
2023-08-05T09:33:48.765Z,32.38
2023-08-05T09:36:23.330Z,31.44
2023-08-05T09:39:07.427Z,31.40
2023-08-05T09:41:37.658Z,31.97
2023-08-05T09:44:13.182Z,32.86
2023-08-05T09:46:45.337Z,34.77
2023-08-05T09:49:18.551Z,36.40
2023-08-05T09:51:52.119Z,38.04
2023-08-05T09:54:32.145Z,38.85
2023-08-05T09:57:04.697Z,38.42
2023-08-05T09:59:37.100Z,37.94
2023-08-05T10:02:07.285Z,36.67
2023-08-05T10:04:37.142Z,36.06
2023-08-05T10:07:07.430Z,36.52
2023-08-05T10:09:37.178Z,36.31
2023-08-05T10:12:08.665Z,37.24
2023-08-05T10:14:40.992Z,37.92
2023-08-05T10:17:11.009Z,38.60
2023-08-05T10:19:40.773Z,38.55
2023-08-05T10:22:12.168Z,38.63
2023-08-05T10:24:55.397Z,39.85
2023-08-05T10:27:42.327Z,40.10
2023-08-05T10:30:16.616Z,40.86
2023-08-05T10:32:53.840Z,40.95
2023-08-05T10:35:33.469Z,41.98
2023-08-05T10:38:09.581Z,42.48
2023-08-05T10:40:49.719Z,42.58
2023-08-05T10:43:46.578Z,42.66
2023-08-05T10:46:19.020Z,43.15
2023-08-05T10:48:52.093Z,43.17
2023-08-05T10:51:23.591Z,43.29
2023-08-05T10:54:02.492Z,43.55
2023-08-05T10:56:37.478Z,43.85
2023-08-05T10:59:08.057Z,43.70
2023-08-05T11:02:00.828Z,43.73
2023-08-05T11:04:31.484Z,44.05
2023-08-05T11:07:03.539Z,44.07
2023-08-05T11:09:36.574Z,44.14
2023-08-05T11:12:07.037Z,43.73
2023-08-05T11:14:38.235Z,44.16
2023-08-05T11:17:11.713Z,44.21
2023-08-05T11:19:53.555Z,44.19
2023-08-05T11:22:28.479Z,43.84
2023-08-05T11:25:00.091Z,43.68
2023-08-05T11:27:33.930Z,43.77
2023-08-05T11:30:14.433Z,43.77
2023-08-05T11:33:04.756Z,43.83
2023-08-05T11:35:34.657Z,42.97
2023-08-05T11:38:04.688Z,43.13
2023-08-05T11:40:35.002Z,43.33
2023-08-05T11:43:09.239Z,43.01
2023-08-05T11:45:41.482Z,43.65
2023-08-05T11:48:20.435Z,42.72
2023-08-05T11:50:50.348Z,42.74
2023-08-05T11:53:20.761Z,42.79
2023-08-05T11:55:50.578Z,42.69
2023-08-05T11:58:21.733Z,42.24
2023-08-05T12:00:53.155Z,41.54
2023-08-05T12:03:25.521Z,41.82
2023-08-05T12:06:03.975Z,42.18
2023-08-05T12:08:44.031Z,42.59
2023-08-05T12:11:14.049Z,42.98
2023-08-05T12:13:45.666Z,43.28
2023-08-05T12:16:19.883Z,43.88
2023-08-05T12:18:52.497Z,44.61
2023-08-05T12:21:22.605Z,44.79
2023-08-05T12:23:55.327Z,45.10
2023-08-05T12:26:29.781Z,45.14
2023-08-05T12:28:59.519Z,45.44
2023-08-05T12:31:31.312Z,46.29
2023-08-05T12:34:03.653Z,47.22
2023-08-05T12:36:33.783Z,48.34
2023-08-05T12:39:05.008Z,48.97
2023-08-05T12:41:36.338Z,49.41
2023-08-05T12:44:06.069Z,50.27
2023-08-05T12:46:35.838Z,50.51
2023-08-05T12:49:08.184Z,50.58
2023-08-05T12:51:37.916Z,50.97
2023-08-05T12:54:07.641Z,50.64
2023-08-05T12:56:37.405Z,51.27
2023-08-05T12:59:07.291Z,51.81
2023-08-05T13:01:38.036Z,52.48
2023-08-05T13:04:10.540Z,52.51
2023-08-05T13:06:40.312Z,53.11
2023-08-05T13:09:10.109Z,53.68
2023-08-05T13:11:39.849Z,54.40
2023-08-05T13:14:09.664Z,54.76
2023-08-05T13:16:39.455Z,56.22
2023-08-05T13:19:12.003Z,57.65
2023-08-05T13:21:41.734Z,58.66
2023-08-05T13:24:11.583Z,59.89
2023-08-05T13:26:41.460Z,61.64
2023-08-05T13:29:11.252Z,63.83
2023-08-05T13:31:41.001Z,65.58
2023-08-05T13:34:13.349Z,66.89
2023-08-05T13:36:43.192Z,68.47
2023-08-05T13:39:12.948Z,69.43
2023-08-05T13:41:42.710Z,70.64
2023-08-05T13:44:12.508Z,71.58
2023-08-05T13:46:42.390Z,72.22
2023-08-05T13:49:14.778Z,73.27
2023-08-05T13:51:45.514Z,74.18
2023-08-05T13:54:16.754Z,74.65
2023-08-05T13:56:46.562Z,76.37
2023-08-05T13:59:16.526Z,77.57
2023-08-05T14:01:47.921Z,78.69
2023-08-05T14:04:20.327Z,79.95
2023-08-05T14:06:50.061Z,80.19
2023-08-05T14:09:20.003Z,80.88
2023-08-05T14:11:49.997Z,81.47
2023-08-05T14:14:22.920Z,81.74
2023-08-05T14:16:53.663Z,81.54
2023-08-05T14:19:26.130Z,81.75
2023-08-05T14:21:55.917Z,81.75
2023-08-05T14:24:25.749Z,82.77
2023-08-05T14:26:55.487Z,82.99
2023-08-05T14:29:25.209Z,83.24
2023-08-05T14:31:55.313Z,84.07
2023-08-05T14:34:27.937Z,84.29
2023-08-05T14:36:57.743Z,84.71
2023-08-05T14:39:27.814Z,85.37
2023-08-05T14:41:57.542Z,85.93
2023-08-05T14:44:27.293Z,86.05
2023-08-05T14:46:57.043Z,86.88
2023-08-05T14:49:29.446Z,86.82
2023-08-05T14:51:59.214Z,87.03
2023-08-05T14:54:29.201Z,87.31
2023-08-05T14:56:58.979Z,87.62
2023-08-05T14:59:28.748Z,87.08
2023-08-05T15:01:58.805Z,87.09
2023-08-05T15:04:31.379Z,87.27
2023-08-05T15:07:01.112Z,87.34
2023-08-05T15:09:30.873Z,87.19
2023-08-05T15:12:00.655Z,87.31
2023-08-05T15:14:30.421Z,86.72
2023-08-05T15:17:00.194Z,86.48
2023-08-05T15:19:32.590Z,86.11
2023-08-05T15:22:02.354Z,86.13
2023-08-05T15:24:32.621Z,86.55
2023-08-05T15:27:02.470Z,86.38
2023-08-05T15:29:32.186Z,85.57
2023-08-05T15:32:02.068Z,85.28
2023-08-05T15:34:36.496Z,85.53
2023-08-05T15:37:06.651Z,85.32
2023-08-05T15:39:36.523Z,85.34
2023-08-05T15:42:06.805Z,85.19
2023-08-05T15:44:38.006Z,84.79
2023-08-05T15:47:08.559Z,84.75
2023-08-05T15:49:40.901Z,84.27
2023-08-05T15:52:11.019Z,84.64
2023-08-05T15:54:42.384Z,83.85
2023-08-05T15:57:13.409Z,83.28
2023-08-05T15:59:43.149Z,82.77
2023-08-05T16:02:12.971Z,82.87
2023-08-05T16:04:45.381Z,82.67
2023-08-05T16:07:15.270Z,82.71
2023-08-05T16:09:45.026Z,82.60
2023-08-05T16:12:16.112Z,82.84
2023-08-05T16:14:45.874Z,82.63
2023-08-05T16:17:15.611Z,81.75
2023-08-05T16:19:48.101Z,81.26
2023-08-05T16:22:17.980Z,81.60
2023-08-05T16:24:47.694Z,81.12
2023-08-05T16:27:17.513Z,80.94
2023-08-05T16:29:47.304Z,80.69
2023-08-05T16:32:17.049Z,80.59
2023-08-05T16:34:49.425Z,80.38
2023-08-05T16:37:20.870Z,80.42
2023-08-05T16:39:50.647Z,80.79
2023-08-05T16:42:20.503Z,80.99
2023-08-05T16:44:50.221Z,80.50
2023-08-05T16:47:20.021Z,80.52
2023-08-05T16:49:52.487Z,81.21
2023-08-05T16:52:22.280Z,81.41
2023-08-05T16:54:53.927Z,81.87
2023-08-05T16:57:24.250Z,82.27
2023-08-05T16:59:54.268Z,82.43
2023-08-05T17:02:23.998Z,83.45
2023-08-05T17:04:57.139Z,83.48
2023-08-05T17:07:26.952Z,84.21
2023-08-05T17:09:57.258Z,84.59
2023-08-05T17:12:27.021Z,85.32
2023-08-05T17:14:56.793Z,85.61
2023-08-05T17:17:26.788Z,86.37
2023-08-05T17:19:59.340Z,87.59
2023-08-05T17:22:29.200Z,87.88
2023-08-05T17:24:59.058Z,87.83
2023-08-05T17:27:29.019Z,87.61
2023-08-05T17:29:59.110Z,87.43
2023-08-05T17:32:28.946Z,87.57
2023-08-05T17:35:01.293Z,87.28
2023-08-05T17:37:31.502Z,87.80
2023-08-05T17:40:02.222Z,87.55
2023-08-05T17:42:32.051Z,87.23
2023-08-05T17:45:01.799Z,87.64
2023-08-05T17:47:31.648Z,87.49
2023-08-05T17:50:04.029Z,87.45
2023-08-05T17:52:33.861Z,87.78
2023-08-05T17:55:03.664Z,88.17
2023-08-05T17:57:33.433Z,88.55
2023-08-05T18:00:03.231Z,88.53
2023-08-05T18:02:35.299Z,89.23
2023-08-05T18:05:08.489Z,88.96
2023-08-05T18:07:38.346Z,89.13
2023-08-05T18:10:09.472Z,89.15
2023-08-05T18:12:39.551Z,89.46
2023-08-05T18:15:10.468Z,89.43
2023-08-05T18:17:40.316Z,89.62
2023-08-05T18:20:13.574Z,89.95
2023-08-05T18:22:43.614Z,89.70
2023-08-05T18:25:13.403Z,89.55
2023-08-05T18:27:43.269Z,89.72
2023-08-05T18:30:15.643Z,89.53
2023-08-05T18:32:45.443Z,89.64
2023-08-05T18:35:18.088Z,90.05
2023-08-05T18:37:48.005Z,90.41
2023-08-05T18:40:17.910Z,91.05
2023-08-05T18:42:47.994Z,91.37
2023-08-05T18:45:18.026Z,92.50
2023-08-05T18:47:47.855Z,93.26
2023-08-05T18:50:20.591Z,93.67
2023-08-05T18:52:50.383Z,94.54
2023-08-05T18:55:20.204Z,94.65
2023-08-05T18:57:50.050Z,95.13
2023-08-05T19:00:20.005Z,95.50
2023-08-05T19:02:52.141Z,96.20
2023-08-05T19:05:24.876Z,96.40
2023-08-05T19:07:54.686Z,96.29
2023-08-05T19:10:24.625Z,96.71
2023-08-05T19:12:54.441Z,96.95
2023-08-05T19:15:24.211Z,96.93
2023-08-05T19:17:54.363Z,96.81
2023-08-05T19:20:26.871Z,96.94
2023-08-05T19:22:56.646Z,96.90
2023-08-05T19:25:26.521Z,97.22
2023-08-05T19:27:56.709Z,97.18
2023-08-05T19:30:26.835Z,96.87
2023-08-05T19:32:57.220Z,97.12
2023-08-05T19:35:31.599Z,96.83
2023-08-05T19:38:01.701Z,96.92
2023-08-05T19:40:31.479Z,97.10
2023-08-05T19:43:01.244Z,97.01
2023-08-05T19:45:31.032Z,97.04
2023-08-05T19:48:00.855Z,97.20
2023-08-05T19:50:33.320Z,97.22
2023-08-05T19:53:03.071Z,97.28
2023-08-05T19:55:34.710Z,97.47
2023-08-05T19:58:04.457Z,97.35
2023-08-05T20:00:34.276Z,97.67
2023-08-05T20:03:04.279Z,97.70
2023-08-05T20:05:38.209Z,97.39
2023-08-05T20:08:08.302Z,97.47
2023-08-05T20:10:38.090Z,97.41
2023-08-05T20:13:07.840Z,96.96
2023-08-05T20:15:37.861Z,96.71
2023-08-05T20:18:07.762Z,96.45
2023-08-05T20:20:40.188Z,95.99
2023-08-05T20:23:10.980Z,95.90
2023-08-05T20:25:40.814Z,95.37
2023-08-05T20:28:10.634Z,95.03
2023-08-05T20:30:40.471Z,95.23
2023-08-05T20:33:11.578Z,94.94
2023-08-05T20:35:44.217Z,94.49
2023-08-05T20:38:14.026Z,94.50
2023-08-05T20:40:43.787Z,94.35
2023-08-05T20:43:13.626Z,94.47
2023-08-05T20:45:43.485Z,94.20
2023-08-05T20:48:13.457Z,94.42
2023-08-05T20:50:45.896Z,94.44
2023-08-05T20:53:15.698Z,94.03
2023-08-05T20:55:45.635Z,94.19
2023-08-05T20:58:15.494Z,94.01
2023-08-05T21:00:45.226Z,93.78
2023-08-05T21:03:15.090Z,93.72
2023-08-05T21:05:47.481Z,93.63
2023-08-05T21:08:17.601Z,93.72
2023-08-05T21:10:48.263Z,93.77
2023-08-05T21:13:18.032Z,93.84
2023-08-05T21:15:47.832Z,94.06
2023-08-05T21:18:17.622Z,94.01
2023-08-05T21:20:49.983Z,93.95
2023-08-05T21:23:19.899Z,93.87
2023-08-05T21:25:49.838Z,93.80
2023-08-05T21:28:19.641Z,94.02
2023-08-05T21:30:52.019Z,94.04
2023-08-05T21:33:21.925Z,94.17
2023-08-05T21:35:54.379Z,94.10
2023-08-05T21:38:25.439Z,94.43
2023-08-05T21:40:55.344Z,94.46
2023-08-05T21:43:25.403Z,94.43
2023-08-05T21:45:58.033Z,94.32
2023-08-05T21:48:29.626Z,94.43
2023-08-05T21:51:03.033Z,94.63
2023-08-05T21:53:32.972Z,94.59
2023-08-05T21:56:05.306Z,94.65
2023-08-05T21:58:35.116Z,94.69
2023-08-05T22:01:05.387Z,94.72
2023-08-05T22:03:35.307Z,95.14
2023-08-05T22:06:12.584Z,95.07
2023-08-05T22:08:42.386Z,95.23
2023-08-05T22:11:12.491Z,95.09
2023-08-05T22:13:42.718Z,95.40
2023-08-05T22:16:12.502Z,95.65
2023-08-05T22:18:42.297Z,95.71
2023-08-05T22:21:14.921Z,95.44
2023-08-05T22:23:44.862Z,95.29
2023-08-05T22:26:14.839Z,95.63
2023-08-05T22:28:44.855Z,95.37
2023-08-05T22:31:14.707Z,95.20
2023-08-05T22:33:44.474Z,95.20
2023-08-05T22:36:18.098Z,95.15
2023-08-05T22:38:48.397Z,95.08
2023-08-05T22:41:18.346Z,94.91
2023-08-05T22:43:48.095Z,94.89
2023-08-05T22:46:18.127Z,94.51
2023-08-05T22:48:47.971Z,94.86
2023-08-05T22:51:20.297Z,94.86
2023-08-05T22:53:50.708Z,94.48
2023-08-05T22:56:21.160Z,94.45
2023-08-05T22:58:54.825Z,94.46
2023-08-05T23:01:24.747Z,94.64
2023-08-05T23:03:54.626Z,94.59
2023-08-05T23:06:27.309Z,94.73
2023-08-05T23:08:57.169Z,94.46
2023-08-05T23:11:26.946Z,94.61
2023-08-05T23:13:56.703Z,94.22
2023-08-05T23:16:26.578Z,94.01
2023-08-05T23:18:56.360Z,94.12
2023-08-05T23:21:30.754Z,94.03
2023-08-05T23:24:01.225Z,93.63
2023-08-05T23:26:31.201Z,93.61
2023-08-05T23:29:01.525Z,93.55
2023-08-05T23:31:31.370Z,93.40
2023-08-05T23:34:01.233Z,93.18
2023-08-05T23:36:33.857Z,93.02
2023-08-05T23:39:03.657Z,92.92
2023-08-05T23:41:33.426Z,92.83
2023-08-05T23:44:03.277Z,92.93
2023-08-05T23:46:33.089Z,92.47
2023-08-05T23:49:03.181Z,92.41
2023-08-05T23:51:35.511Z,92.58
2023-08-05T23:54:05.323Z,92.57
2023-08-05T23:56:35.065Z,92.16
2023-08-05T23:59:05.072Z,92.17
